sensor_id;sensor_type;location;lat;lon;timestamp;pressure;altitude;pressure_sealevel;temperature;humidity
13478;BME280;12598;62.382;17.344;2023-01-09T00:00:41;99937.97;;;18.37;26.97
13478;BME280;12598;62.382;17.344;2023-01-09T00:01:49;99954.72;;;18.39;26.92
13478;BME280;12598;62.382;17.344;2023-01-09T00:02:51;99944.84;;;18.40;26.79
13478;BME280;12598;62.382;17.344;2023-01-09T00:03:53;99945.84;;;18.39;26.87
13478;BME280;12598;62.382;17.344;2023-01-09T00:04:55;99938.66;;;18.31;26.85
13478;BME280;12598;62.382;17.344;2023-01-09T00:05:56;99950.53;;;18.37;26.84
13478;BME280;12598;62.382;17.344;2023-01-09T00:06:58;99951.56;;;18.36;26.74
13478;BME280;12598;62.382;17.344;2023-01-09T00:08:00;99948.22;;;18.34;26.86
13478;BME280;12598;62.382;17.344;2023-01-09T00:09:02;99951.56;;;18.36;26.95
13478;BME280;12598;62.382;17.344;2023-01-09T00:10:05;99951.56;;;18.36;26.62
13478;BME280;12598;62.382;17.344;2023-01-09T00:11:07;99947.34;;;18.33;26.92
13478;BME280;12598;62.382;17.344;2023-01-09T00:12:09;99952.56;;;18.35;26.74
13478;BME280;12598;62.382;17.344;2023-01-09T00:13:12;99948.88;;;18.36;26.71
13478;BME280;12598;62.382;17.344;2023-01-09T00:14:15;99943.69;;;18.34;26.86
13478;BME280;12598;62.382;17.344;2023-01-09T00:15:17;99908.03;;;18.10;27.00
13478;BME280;12598;62.382;17.344;2023-01-09T00:16:19;99955.22;;;18.35;26.81
13478;BME280;12598;62.382;17.344;2023-01-09T00:17:21;99939.66;;;18.30;27.03
13478;BME280;12598;62.382;17.344;2023-01-09T00:18:23;99949.22;;;18.33;26.86
13478;BME280;12598;62.382;17.344;2023-01-09T00:19:25;99942.34;;;18.30;26.70
13478;BME280;12598;62.382;17.344;2023-01-09T00:20:27;99943.00;;;18.32;26.99
13478;BME280;12598;62.382;17.344;2023-01-09T00:21:28;99941.53;;;18.30;27.37
13478;BME280;12598;62.382;17.344;2023-01-09T00:22:30;99942.53;;;18.29;26.71
13478;BME280;12598;62.382;17.344;2023-01-09T00:23:32;99938.16;;;18.28;27.00
13478;BME280;12598;62.382;17.344;2023-01-09T00:24:35;99923.94;;;18.19;27.00
13478;BME280;12598;62.382;17.344;2023-01-09T00:25:37;99946.88;;;18.30;26.99
13478;BME280;12598;62.382;17.344;2023-01-09T00:26:42;99940.69;;;18.29;26.71
13478;BME280;12598;62.382;17.344;2023-01-09T00:27:45;99936.19;;;18.30;26.94
13478;BME280;12598;62.382;17.344;2023-01-09T00:28:49;99946.88;;;18.30;27.18
13478;BME280;12598;62.382;17.344;2023-01-09T00:29:51;99934.50;;;18.29;27.07
13478;BME280;12598;62.382;17.344;2023-01-09T00:30:57;99947.88;;;18.29;26.81
13478;BME280;12598;62.382;17.344;2023-01-09T00:32:00;99940.16;;;18.26;27.15
13478;BME280;12598;62.382;17.344;2023-01-09T00:33:02;99937.34;;;18.27;26.89
13478;BME280;12598;62.382;17.344;2023-01-09T00:34:05;99940.16;;;18.26;27.42
13478;BME280;12598;62.382;17.344;2023-01-09T00:35:10;99943.81;;;18.25;26.78
13478;BME280;12598;62.382;17.344;2023-01-09T00:36:15;99940.00;;;18.27;26.95
13478;BME280;12598;62.382;17.344;2023-01-09T00:37:16;99930.94;;;18.20;26.91
13478;BME280;12598;62.382;17.344;2023-01-09T00:38:18;99933.44;;;18.22;26.91
13478;BME280;12598;62.382;17.344;2023-01-09T00:39:23;99937.63;;;18.24;26.95
13478;BME280;12598;62.382;17.344;2023-01-09T00:40:25;99936.63;;;18.25;26.90
13478;BME280;12598;62.382;17.344;2023-01-09T00:41:41;99934.44;;;18.21;27.21
13478;BME280;12598;62.382;17.344;2023-01-09T00:42:47;99937.34;;;18.27;27.08
13478;BME280;12598;62.382;17.344;2023-01-09T00:43:52;99931.44;;;18.24;27.11
13478;BME280;12598;62.382;17.344;2023-01-09T00:45:02;99937.34;;;18.27;26.95
13478;BME280;12598;62.382;17.344;2023-01-09T00:46:05;99936.47;;;18.27;26.78
13478;BME280;12598;62.382;17.344;2023-01-09T00:47:11;99939.31;;;18.25;27.08
13478;BME280;12598;62.382;17.344;2023-01-09T00:48:17;99931.28;;;18.25;26.90
13478;BME280;12598;62.382;17.344;2023-01-09T00:49:28;99932.28;;;18.24;27.06
13478;BME280;12598;62.382;17.344;2023-01-09T00:50:32;99933.09;;;18.25;27.00
13478;BME280;12598;62.382;17.344;2023-01-09T00:51:36;99928.94;;;18.22;27.16
13478;BME280;12598;62.382;17.344;2023-01-09T00:52:39;99934.28;;;18.22;27.11
13478;BME280;12598;62.382;17.344;2023-01-09T00:53:41;99936.13;;;18.22;27.04
13478;BME280;12598;62.382;17.344;2023-01-09T00:54:44;99931.09;;;18.19;27.11
13478;BME280;12598;62.382;17.344;2023-01-09T00:55:46;99927.28;;;18.21;26.91
13478;BME280;12598;62.382;17.344;2023-01-09T00:56:48;99933.13;;;18.17;27.28
13478;BME280;12598;62.382;17.344;2023-01-09T00:57:50;99934.78;;;18.18;27.20
13478;BME280;12598;62.382;17.344;2023-01-09T00:58:52;99936.47;;;18.19;26.97
13478;BME280;12598;62.382;17.344;2023-01-09T00:59:55;99942.81;;;18.18;26.84
13478;BME280;12598;62.382;17.344;2023-01-09T01:00:58;99937.47;;;18.18;27.07
13478;BME280;12598;62.382;17.344;2023-01-09T01:02:00;99934.78;;;18.10;26.96
13478;BME280;12598;62.382;17.344;2023-01-09T01:03:02;99936.13;;;18.14;27.29
13478;BME280;12598;62.382;17.344;2023-01-09T01:04:04;99929.63;;;18.16;26.85
13478;BME280;12598;62.382;17.344;2023-01-09T01:05:26;99937.13;;;18.21;27.08
13478;BME280;12598;62.382;17.344;2023-01-09T01:06:46;99931.44;;;18.24;27.06
13478;BME280;12598;62.382;17.344;2023-01-09T01:08:14;99936.13;;;18.22;26.85
13478;BME280;12598;62.382;17.344;2023-01-09T01:09:16;99927.09;;;18.15;26.95
13478;BME280;12598;62.382;17.344;2023-01-09T01:10:21;99937.47;;;18.18;27.10
13478;BME280;12598;62.382;17.344;2023-01-09T01:11:23;99936.66;;;18.17;26.86
13478;BME280;12598;62.382;17.344;2023-01-09T01:12:25;99936.81;;;18.08;26.94
13478;BME280;12598;62.382;17.344;2023-01-09T01:13:26;99939.66;;;18.14;27.21
13478;BME280;12598;62.382;17.344;2023-01-09T01:14:28;99926.09;;;18.08;26.91
13478;BME280;12598;62.382;17.344;2023-01-09T01:15:30;99933.78;;;18.11;26.93
13478;BME280;12598;62.382;17.344;2023-01-09T01:16:32;99930.13;;;18.12;26.92
13478;BME280;12598;62.382;17.344;2023-01-09T01:17:35;99930.44;;;18.09;27.21
13478;BME280;12598;62.382;17.344;2023-01-09T01:18:39;99933.78;;;18.11;27.31
13478;BME280;12598;62.382;17.344;2023-01-09T01:19:41;99936.47;;;18.11;27.09
13478;BME280;12598;62.382;17.344;2023-01-09T01:20:44;99934.78;;;18.10;27.37
13478;BME280;12598;62.382;17.344;2023-01-09T01:21:46;99927.78;;;18.09;27.14
13478;BME280;12598;62.382;17.344;2023-01-09T01:22:48;99916.75;;;18.04;27.05
13478;BME280;12598;62.382;17.344;2023-01-09T01:23:49;99933.13;;;18.09;27.25
13478;BME280;12598;62.382;17.344;2023-01-09T01:24:51;99917.75;;;18.03;27.23
13478;BME280;12598;62.382;17.344;2023-01-09T01:25:53;99932.31;;;18.08;27.40
13478;BME280;12598;62.382;17.344;2023-01-09T01:26:55;99920.09;;;18.06;27.18
13478;BME280;12598;62.382;17.344;2023-01-09T01:27:57;99926.09;;;18.08;27.25
13478;BME280;12598;62.382;17.344;2023-01-09T01:28:58;99917.41;;;18.06;27.02
13478;BME280;12598;62.382;17.344;2023-01-09T01:30:00;99915.41;;;18.08;26.91
13478;BME280;12598;62.382;17.344;2023-01-09T01:31:03;99932.47;;;18.07;26.87
13478;BME280;12598;62.382;17.344;2023-01-09T01:32:05;99921.91;;;18.05;27.30
13478;BME280;12598;62.382;17.344;2023-01-09T01:33:08;99922.75;;;18.06;27.24
13478;BME280;12598;62.382;17.344;2023-01-09T01:34:10;99928.78;;;18.08;27.00
13478;BME280;12598;62.382;17.344;2023-01-09T01:35:12;99922.75;;;18.06;27.30
13478;BME280;12598;62.382;17.344;2023-01-09T01:36:14;99919.94;;;18.07;27.28
13478;BME280;12598;62.382;17.344;2023-01-09T01:37:18;99899.38;;;17.92;27.04
13478;BME280;12598;62.382;17.344;2023-01-09T01:38:19;99914.06;;;18.04;27.13
13478;BME280;12598;62.382;17.344;2023-01-09T01:39:21;99912.88;;;18.06;26.88
13478;BME280;12598;62.382;17.344;2023-01-09T01:40:23;99913.56;;;18.00;27.29
13478;BME280;12598;62.382;17.344;2023-01-09T01:41:25;99910.72;;;18.02;26.89
13478;BME280;12598;62.382;17.344;2023-01-09T01:42:30;99910.72;;;18.02;27.20
13478;BME280;12598;62.382;17.344;2023-01-09T01:45:29;99914.38;;;18.17;26.55
13478;BME280;12598;62.382;17.344;2023-01-09T01:46:32;99913.41;;;18.10;26.86
13478;BME280;12598;62.382;17.344;2023-01-09T01:48:39;99913.59;;;18.08;27.36
13478;BME280;12598;62.382;17.344;2023-01-09T01:49:41;99925.44;;;18.06;27.28
13478;BME280;12598;62.382;17.344;2023-01-09T01:51:04;99908.72;;;18.04;27.08
13478;BME280;12598;62.382;17.344;2023-01-09T01:52:07;99913.59;;;18.08;27.17
13478;BME280;12598;62.382;17.344;2023-01-09T01:54:19;99909.53;;;18.04;26.95
13478;BME280;12598;62.382;17.344;2023-01-09T01:55:22;99906.53;;;17.99;27.31
13478;BME280;12598;62.382;17.344;2023-01-09T01:56:34;99908.06;;;18.02;27.06
13478;BME280;12598;62.382;17.344;2023-01-09T01:57:40;99909.72;;;18.03;27.16
13478;BME280;12598;62.382;17.344;2023-01-09T01:58:54;99906.88;;;18.04;27.12
13478;BME280;12598;62.382;17.344;2023-01-09T01:59:58;99900.03;;;18.02;27.16
13478;BME280;12598;62.382;17.344;2023-01-09T02:01:05;99909.72;;;18.03;27.37
13478;BME280;12598;62.382;17.344;2023-01-09T02:02:07;99910.72;;;18.02;26.95
13478;BME280;12598;62.382;17.344;2023-01-09T02:03:13;99914.41;;;18.01;27.14
13478;BME280;12598;62.382;17.344;2023-01-09T02:04:19;99902.38;;;17.97;27.20
13478;BME280;12598;62.382;17.344;2023-01-09T02:05:21;99913.56;;;18.00;27.27
13478;BME280;12598;62.382;17.344;2023-01-09T02:06:24;99903.53;;;17.94;27.39
13478;BME280;12598;62.382;17.344;2023-01-09T02:07:26;99913.75;;;17.99;26.96
13478;BME280;12598;62.382;17.344;2023-01-09T02:08:28;99913.06;;;17.97;27.50
13478;BME280;12598;62.382;17.344;2023-01-09T02:09:30;99907.06;;;17.95;27.16
13478;BME280;12598;62.382;17.344;2023-01-09T02:10:33;99908.06;;;17.94;27.10
13478;BME280;12598;62.382;17.344;2023-01-09T02:11:36;99894.38;;;17.89;27.18
13478;BME280;12598;62.382;17.344;2023-01-09T02:12:38;99901.38;;;17.90;27.10
13478;BME280;12598;62.382;17.344;2023-01-09T02:13:40;99909.72;;;17.95;27.12
13478;BME280;12598;62.382;17.344;2023-01-09T02:14:43;99911.75;;;17.93;27.26
13478;BME280;12598;62.382;17.344;2023-01-09T02:16:00;99909.72;;;17.95;27.21
13478;BME280;12598;62.382;17.344;2023-01-09T02:18:49;99903.38;;;18.04;27.00
13478;BME280;12598;62.382;17.344;2023-01-09T02:20:34;99907.06;;;18.03;26.99
13478;BME280;12598;62.382;17.344;2023-01-09T02:21:42;99907.06;;;18.03;27.21
13478;BME280;12598;62.382;17.344;2023-01-09T02:23:56;99905.38;;;18.10;27.12
13478;BME280;12598;62.382;17.344;2023-01-09T02:27:29;99915.75;;;18.05;26.82
13478;BME280;12598;62.382;17.344;2023-01-09T02:30:27;99905.88;;;18.05;26.84
13478;BME280;12598;62.382;17.344;2023-01-09T02:40:04;99900.72;;;17.96;27.02
13478;BME280;12598;62.382;17.344;2023-01-09T02:42:26;99900.38;;;17.99;27.08
13478;BME280;12598;62.382;17.344;2023-01-09T02:43:29;99891.84;;;17.87;27.49
13478;BME280;12598;62.382;17.344;2023-01-09T02:44:33;99886.50;;;17.87;27.37
13478;BME280;12598;62.382;17.344;2023-01-09T02:45:36;99893.00;;;17.85;27.25
13478;BME280;12598;62.382;17.344;2023-01-09T02:46:38;99905.06;;;17.89;27.27
13478;BME280;12598;62.382;17.344;2023-01-09T02:47:44;99907.06;;;17.87;27.26
13478;BME280;12598;62.382;17.344;2023-01-09T02:48:49;99899.84;;;17.87;27.26
13478;BME280;12598;62.382;17.344;2023-01-09T02:49:57;99902.38;;;17.89;27.50
13478;BME280;12598;62.382;17.344;2023-01-09T02:51:24;99906.22;;;17.94;27.26
13478;BME280;12598;62.382;17.344;2023-01-09T02:54:22;99901.19;;;17.99;27.12
13478;BME280;12598;62.382;17.344;2023-01-09T02:57:27;99904.53;;;18.01;27.18
13478;BME280;12598;62.382;17.344;2023-01-09T03:00:13;99904.53;;;18.01;27.23
13478;BME280;12598;62.382;17.344;2023-01-09T03:03:29;99895.03;;;17.99;27.34
13478;BME280;12598;62.382;17.344;2023-01-09T03:04:37;99904.38;;;18.03;27.51
13478;BME280;12598;62.382;17.344;2023-01-09T03:05:51;99902.03;;;18.00;27.11
13478;BME280;12598;62.382;17.344;2023-01-09T03:07:02;99896.34;;;17.95;27.35
13478;BME280;12598;62.382;17.344;2023-01-09T03:08:13;99904.53;;;17.93;27.48
13478;BME280;12598;62.382;17.344;2023-01-09T03:09:23;99896.50;;;17.93;27.33
13478;BME280;12598;62.382;17.344;2023-01-09T03:11:46;99903.06;;;17.91;27.55
13478;BME280;12598;62.382;17.344;2023-01-09T03:12:52;99906.72;;;17.90;27.44
13478;BME280;12598;62.382;17.344;2023-01-09T03:13:58;99900.34;;;17.83;27.40
13478;BME280;12598;62.382;17.344;2023-01-09T03:15:05;99913.75;;;17.91;27.60
13478;BME280;12598;62.382;17.344;2023-01-09T03:16:12;99901.88;;;17.85;27.54
13478;BME280;12598;62.382;17.344;2023-01-09T03:17:22;99909.56;;;17.88;27.73
13478;BME280;12598;62.382;17.344;2023-01-09T03:18:27;99909.41;;;17.90;27.17
13478;BME280;12598;62.382;17.344;2023-01-09T03:19:31;99903.53;;;17.86;27.65
13478;BME280;12598;62.382;17.344;2023-01-09T03:20:35;99904.53;;;17.85;27.63
13478;BME280;12598;62.382;17.344;2023-01-09T03:21:39;99909.03;;;17.85;27.24
13478;BME280;12598;62.382;17.344;2023-01-09T03:23:02;99905.06;;;17.89;27.51
13478;BME280;12598;62.382;17.344;2023-01-09T03:24:05;99908.41;;;17.91;27.79
13478;BME280;12598;62.382;17.344;2023-01-09T03:25:07;99900.34;;;17.83;27.43
13478;BME280;12598;62.382;17.344;2023-01-09T03:26:10;99902.72;;;17.86;27.19
13478;BME280;12598;62.382;17.344;2023-01-09T03:27:12;99901.72;;;17.87;27.61
13478;BME280;12598;62.382;17.344;2023-01-09T03:28:25;99889.16;;;17.80;27.41
13478;BME280;12598;62.382;17.344;2023-01-09T03:29:27;99894.69;;;17.86;27.44
13478;BME280;12598;62.382;17.344;2023-01-09T03:30:31;99895.00;;;17.83;27.60
13478;BME280;12598;62.382;17.344;2023-01-09T03:31:33;99898.03;;;17.88;27.66
13478;BME280;12598;62.382;17.344;2023-01-09T03:32:35;99894.84;;;17.84;27.45
13478;BME280;12598;62.382;17.344;2023-01-09T03:33:37;99898.34;;;17.85;27.54
13478;BME280;12598;62.382;17.344;2023-01-09T03:34:39;99888.66;;;17.84;27.62
13478;BME280;12598;62.382;17.344;2023-01-09T03:35:41;99887.66;;;17.85;27.27
13478;BME280;12598;62.382;17.344;2023-01-09T03:36:43;99881.16;;;17.80;27.56
13478;BME280;12598;62.382;17.344;2023-01-09T03:37:45;99893.00;;;17.85;27.46
13478;BME280;12598;62.382;17.344;2023-01-09T03:38:47;99890.66;;;17.82;27.64
13478;BME280;12598;62.382;17.344;2023-01-09T03:39:49;99879.63;;;17.77;27.45
13478;BME280;12598;62.382;17.344;2023-01-09T03:40:51;99890.00;;;17.80;27.27
13478;BME280;12598;62.382;17.344;2023-01-09T03:41:53;99893.84;;;17.85;27.62
13478;BME280;12598;62.382;17.344;2023-01-09T03:42:55;99891.16;;;17.78;27.48
13478;BME280;12598;62.382;17.344;2023-01-09T03:43:56;99890.50;;;17.83;27.43
13478;BME280;12598;62.382;17.344;2023-01-09T03:44:58;99900.34;;;17.83;27.44
13478;BME280;12598;62.382;17.344;2023-01-09T03:46:01;99894.84;;;17.84;27.66
13478;BME280;12598;62.382;17.344;2023-01-09T03:47:02;99893.00;;;17.85;27.57
13478;BME280;12598;62.382;17.344;2023-01-09T03:48:04;99893.00;;;17.85;27.35
13478;BME280;12598;62.382;17.344;2023-01-09T03:49:06;99893.66;;;17.79;27.61
13478;BME280;12598;62.382;17.344;2023-01-09T03:50:09;99890.84;;;17.81;27.54
13478;BME280;12598;62.382;17.344;2023-01-09T03:51:11;99895.84;;;17.83;27.36
13478;BME280;12598;62.382;17.344;2023-01-09T03:52:12;99886.50;;;17.80;27.45
13478;BME280;12598;62.382;17.344;2023-01-09T03:53:14;99899.34;;;17.84;27.70
13478;BME280;12598;62.382;17.344;2023-01-09T03:54:16;99891.16;;;17.78;27.38
13478;BME280;12598;62.382;17.344;2023-01-09T03:55:18;99894.00;;;17.84;27.60
13478;BME280;12598;62.382;17.344;2023-01-09T03:56:20;99902.00;;;17.84;27.72
13478;BME280;12598;62.382;17.344;2023-01-09T03:57:22;99896.66;;;17.84;27.19
13478;BME280;12598;62.382;17.344;2023-01-09T03:58:25;99890.66;;;17.82;27.42
13478;BME280;12598;62.382;17.344;2023-01-09T03:59:27;99895.84;;;17.83;27.68
13478;BME280;12598;62.382;17.344;2023-01-09T04:00:28;99888.31;;;17.79;27.52
13478;BME280;12598;62.382;17.344;2023-01-09T04:01:30;99896.66;;;17.84;27.50
13478;BME280;12598;62.382;17.344;2023-01-09T04:02:32;99888.31;;;17.79;27.30
13478;BME280;12598;62.382;17.344;2023-01-09T04:03:34;99901.88;;;17.85;27.34
13478;BME280;12598;62.382;17.344;2023-01-09T04:04:36;99892.50;;;17.82;27.34
13478;BME280;12598;62.382;17.344;2023-01-09T04:05:38;99886.31;;;17.81;27.82
13478;BME280;12598;62.382;17.344;2023-01-09T04:06:40;99882.31;;;17.77;27.83
13478;BME280;12598;62.382;17.344;2023-01-09T04:07:42;99898.69;;;17.82;27.31
13478;BME280;12598;62.382;17.344;2023-01-09T04:08:44;99890.50;;;17.83;27.78
13478;BME280;12598;62.382;17.344;2023-01-09T04:09:46;99898.34;;;17.85;27.49
13478;BME280;12598;62.382;17.344;2023-01-09T04:10:50;99886.50;;;17.80;27.27
13478;BME280;12598;62.382;17.344;2023-01-09T04:11:52;99896.84;;;17.83;27.11
13478;BME280;12598;62.382;17.344;2023-01-09T04:12:54;99888.31;;;17.79;27.67
13478;BME280;12598;62.382;17.344;2023-01-09T04:13:56;99899.19;;;17.85;27.69
13478;BME280;12598;62.382;17.344;2023-01-09T04:14:58;99896.38;;;17.87;27.44
13478;BME280;12598;62.382;17.344;2023-01-09T04:16:00;99898.34;;;17.85;27.41
13478;BME280;12598;62.382;17.344;2023-01-09T04:17:02;99897.38;;;17.86;27.37
13478;BME280;12598;62.382;17.344;2023-01-09T04:18:04;99896.38;;;17.87;27.84
13478;BME280;12598;62.382;17.344;2023-01-09T04:19:05;99898.19;;;17.86;27.84
13478;BME280;12598;62.382;17.344;2023-01-09T04:20:08;99899.19;;;17.85;27.39
13478;BME280;12598;62.382;17.344;2023-01-09T04:21:10;99894.19;;;17.83;27.63
13478;BME280;12598;62.382;17.344;2023-01-09T04:22:12;99890.31;;;17.85;27.65
13478;BME280;12598;62.382;17.344;2023-01-09T04:23:14;99899.84;;;17.87;27.60
13478;BME280;12598;62.382;17.344;2023-01-09T04:24:16;99895.50;;;17.86;27.54
13478;BME280;12598;62.382;17.344;2023-01-09T04:25:18;99891.31;;;17.84;27.72
13478;BME280;12598;62.382;17.344;2023-01-09T04:26:19;99901.53;;;17.88;27.76
13478;BME280;12598;62.382;17.344;2023-01-09T04:27:22;99902.53;;;17.87;27.32
13478;BME280;12598;62.382;17.344;2023-01-09T04:28:24;99903.38;;;17.88;27.62
13478;BME280;12598;62.382;17.344;2023-01-09T04:29:25;99895.38;;;17.88;27.80
13478;BME280;12598;62.382;17.344;2023-01-09T04:30:27;99898.03;;;17.88;27.63
13478;BME280;12598;62.382;17.344;2023-01-09T04:31:29;99905.22;;;17.87;27.64
13478;BME280;12598;62.382;17.344;2023-01-09T04:32:31;99889.66;;;17.83;27.58
13478;BME280;12598;62.382;17.344;2023-01-09T04:33:33;99896.84;;;17.83;27.57
13478;BME280;12598;62.382;17.344;2023-01-09T04:34:35;99899.84;;;17.87;27.48
13478;BME280;12598;62.382;17.344;2023-01-09T04:35:37;99904.38;;;17.87;27.33
13478;BME280;12598;62.382;17.344;2023-01-09T04:36:38;99904.22;;;17.88;27.56
13478;BME280;12598;62.382;17.344;2023-01-09T04:37:40;99893.31;;;17.82;27.61
13478;BME280;12598;62.382;17.344;2023-01-09T04:38:42;99904.22;;;17.88;27.70
13478;BME280;12598;62.382;17.344;2023-01-09T04:39:44;99898.03;;;17.88;27.64
13478;BME280;12598;62.382;17.344;2023-01-09T04:40:46;99900.72;;;17.88;27.44
13478;BME280;12598;62.382;17.344;2023-01-09T04:41:49;99898.03;;;17.88;27.84
13478;BME280;12598;62.382;17.344;2023-01-09T04:42:50;99904.22;;;17.88;27.63
13478;BME280;12598;62.382;17.344;2023-01-09T04:43:52;99901.53;;;17.88;27.65
13478;BME280;12598;62.382;17.344;2023-01-09T04:44:54;99905.22;;;17.87;27.62
13478;BME280;12598;62.382;17.344;2023-01-09T04:45:56;99907.06;;;17.87;27.77
13478;BME280;12598;62.382;17.344;2023-01-09T04:46:58;99907.06;;;17.87;27.62
13478;BME280;12598;62.382;17.344;2023-01-09T04:48:00;99906.88;;;17.88;27.98
13478;BME280;12598;62.382;17.344;2023-01-09T04:49:01;99902.53;;;17.87;27.91
13478;BME280;12598;62.382;17.344;2023-01-09T04:50:04;99899.03;;;17.87;27.57
13478;BME280;12598;62.382;17.344;2023-01-09T04:51:06;99901.34;;;17.82;27.68
13478;BME280;12598;62.382;17.344;2023-01-09T04:52:07;99891.66;;;17.81;27.68
13478;BME280;12598;62.382;17.344;2023-01-09T04:53:09;99904.38;;;17.87;27.66
13478;BME280;12598;62.382;17.344;2023-01-09T04:54:11;99906.22;;;17.86;27.52
13478;BME280;12598;62.382;17.344;2023-01-09T04:55:13;99902.72;;;17.86;27.65
13478;BME280;12598;62.382;17.344;2023-01-09T04:56:15;99904.53;;;17.85;27.62
13478;BME280;12598;62.382;17.344;2023-01-09T04:57:17;99907.38;;;17.84;27.48
13478;BME280;12598;62.382;17.344;2023-01-09T04:58:19;99901.88;;;17.85;27.68
13478;BME280;12598;62.382;17.344;2023-01-09T04:59:20;99901.19;;;17.83;27.45
13478;BME280;12598;62.382;17.344;2023-01-09T05:00:22;99899.53;;;17.83;27.54
13478;BME280;12598;62.382;17.344;2023-01-09T05:01:24;99909.75;;;17.87;27.64
13478;BME280;12598;62.382;17.344;2023-01-09T05:02:26;99904.38;;;17.87;27.83
13478;BME280;12598;62.382;17.344;2023-01-09T05:03:28;99900.03;;;17.86;27.86
13478;BME280;12598;62.382;17.344;2023-01-09T05:04:30;99906.69;;;17.82;27.66
13478;BME280;12598;62.382;17.344;2023-01-09T05:05:32;99904.03;;;17.82;27.62
13478;BME280;12598;62.382;17.344;2023-01-09T05:06:34;99894.00;;;17.76;27.99
13478;BME280;12598;62.382;17.344;2023-01-09T05:07:36;99907.06;;;17.87;27.55
13478;BME280;12598;62.382;17.344;2023-01-09T05:08:37;99907.38;;;17.84;27.70
13478;BME280;12598;62.382;17.344;2023-01-09T05:09:39;99907.22;;;17.85;27.87
13478;BME280;12598;62.382;17.344;2023-01-09T05:10:41;99901.53;;;17.81;27.88
13478;BME280;12598;62.382;17.344;2023-01-09T05:11:43;99905.88;;;17.82;27.89
13478;BME280;12598;62.382;17.344;2023-01-09T05:12:45;99898.19;;;17.79;27.83
13478;BME280;12598;62.382;17.344;2023-01-09T05:13:47;99909.03;;;17.85;27.90
13478;BME280;12598;62.382;17.344;2023-01-09T05:14:48;99913.41;;;17.86;27.95
13478;BME280;12598;62.382;17.344;2023-01-09T05:15:50;99877.28;;;17.66;28.03
13478;BME280;12598;62.382;17.344;2023-01-09T05:16:52;99911.72;;;17.85;27.74
13478;BME280;12598;62.382;17.344;2023-01-09T05:17:54;99910.75;;;17.86;27.86
13478;BME280;12598;62.382;17.344;2023-01-09T05:18:56;99916.91;;;17.86;27.74
13478;BME280;12598;62.382;17.344;2023-01-09T05:19:58;99910.75;;;17.86;27.88
13478;BME280;12598;62.382;17.344;2023-01-09T05:21:01;99906.38;;;17.85;27.62
13478;BME280;12598;62.382;17.344;2023-01-09T05:22:04;99902.69;;;17.78;27.79
13478;BME280;12598;62.382;17.344;2023-01-09T05:23:05;99916.09;;;17.86;27.99
13478;BME280;12598;62.382;17.344;2023-01-09T05:24:07;99911.03;;;17.83;27.63
13478;BME280;12598;62.382;17.344;2023-01-09T05:25:09;99922.25;;;17.86;27.69
13478;BME280;12598;62.382;17.344;2023-01-09T05:26:11;99916.09;;;17.86;27.68
13478;BME280;12598;62.382;17.344;2023-01-09T05:27:13;99919.59;;;17.86;28.01
13478;BME280;12598;62.382;17.344;2023-01-09T05:28:15;99925.78;;;17.87;27.83
13478;BME280;12598;62.382;17.344;2023-01-09T05:29:17;99915.38;;;17.84;27.85
13478;BME280;12598;62.382;17.344;2023-01-09T05:30:19;99906.69;;;17.82;27.82
13478;BME280;12598;62.382;17.344;2023-01-09T05:31:21;99911.38;;;17.80;27.88
13478;BME280;12598;62.382;17.344;2023-01-09T05:32:23;99923.94;;;17.87;27.74
13478;BME280;12598;62.382;17.344;2023-01-09T05:33:25;99894.66;;;17.70;27.67
13478;BME280;12598;62.382;17.344;2023-01-09T05:34:27;99914.06;;;17.80;27.95
13478;BME280;12598;62.382;17.344;2023-01-09T05:35:29;99914.91;;;17.81;27.85
13478;BME280;12598;62.382;17.344;2023-01-09T05:36:31;99917.41;;;17.82;27.73
13478;BME280;12598;62.382;17.344;2023-01-09T05:37:33;99925.09;;;17.85;27.94
13478;BME280;12598;62.382;17.344;2023-01-09T05:38:35;99918.06;;;17.84;28.00
13478;BME280;12598;62.382;17.344;2023-01-09T05:39:36;99910.22;;;17.75;28.09
13478;BME280;12598;62.382;17.344;2023-01-09T05:40:38;99916.72;;;17.80;27.80
13478;BME280;12598;62.382;17.344;2023-01-09T05:41:41;99925.09;;;17.85;27.67
13478;BME280;12598;62.382;17.344;2023-01-09T05:42:44;99925.09;;;17.85;27.84
13478;BME280;12598;62.382;17.344;2023-01-09T05:43:46;99928.75;;;17.84;27.90
13478;BME280;12598;62.382;17.344;2023-01-09T05:44:48;99931.28;;;17.85;27.92
13478;BME280;12598;62.382;17.344;2023-01-09T05:45:50;99932.13;;;17.86;27.77
13478;BME280;12598;62.382;17.344;2023-01-09T05:46:52;99929.63;;;17.84;27.76
13478;BME280;12598;62.382;17.344;2023-01-09T05:47:53;99930.44;;;17.85;27.49
13478;BME280;12598;62.382;17.344;2023-01-09T05:48:55;99924.06;;;17.78;27.96
13478;BME280;12598;62.382;17.344;2023-01-09T05:49:57;99936.78;;;17.84;27.75
13478;BME280;12598;62.382;17.344;2023-01-09T05:50:59;99934.28;;;17.83;27.93
13478;BME280;12598;62.382;17.344;2023-01-09T05:52:01;99941.13;;;17.85;27.64
13478;BME280;12598;62.382;17.344;2023-01-09T05:53:03;99931.44;;;17.84;27.72
13478;BME280;12598;62.382;17.344;2023-01-09T05:54:05;99925.75;;;17.79;27.84
13478;BME280;12598;62.382;17.344;2023-01-09T05:55:08;99929.28;;;17.80;27.76
13478;BME280;12598;62.382;17.344;2023-01-09T05:56:10;99936.63;;;17.85;27.68
13478;BME280;12598;62.382;17.344;2023-01-09T05:57:12;99928.41;;;17.79;27.84
13478;BME280;12598;62.382;17.344;2023-01-09T05:58:14;99936.63;;;17.85;27.75
13478;BME280;12598;62.382;17.344;2023-01-09T05:59:16;99944.66;;;17.85;27.81
13478;BME280;12598;62.382;17.344;2023-01-09T06:00:18;99946.47;;;17.85;27.96
13478;BME280;12598;62.382;17.344;2023-01-09T06:01:20;99937.97;;;17.82;27.69
13478;BME280;12598;62.382;17.344;2023-01-09T06:02:24;99946.47;;;17.85;27.64